Time;durP1;ratioP1;P1;durP2;ratioP2;P2;SDS_P1;SDS_P2;PMS_P1;PMS_P2;Temp;Humidity;BMP_temperature;BMP_pressure;BME280_temperature;BME280_humidity;BME280_pressure;Samples;Min_cycle;Max_cycle;Signal;HPM_P1;HPM_P2
2022/03/24 00:01:26;;;;;;;0.10;0.10;;;;;;;;;;5078460;28;20243;-79
2022/03/24 00:03:55;;;;;;;0.10;0.10;;;;;;;;;;5090231;28;20205;-79
2022/03/24 00:06:23;;;;;;;0.23;0.23;;;;;;;;;;5079451;28;20246;-79
2022/03/24 00:08:50;;;;;;;0.13;0.13;;;;;;;;;;5087408;28;20372;-79
2022/03/24 00:11:17;;;;;;;0.10;0.10;;;;;;;;;;5079359;28;20242;-78
2022/03/24 00:13:44;;;;;;;0.13;0.13;;;;;;;;;;5087177;28;20272;-80
2022/03/24 00:16:11;;;;;;;0.10;0.10;;;;;;;;;;5078523;28;20243;-79
2022/03/24 00:18:38;;;;;;;0.10;0.10;;;;;;;;;;5086500;28;20226;-80
2022/03/24 00:21:05;;;;;;;0.10;0.10;;;;;;;;;;5079233;28;20345;-78
2022/03/24 00:23:34;;;;;;;0.20;0.20;;;;;;;;;;5088775;28;20203;-79
2022/03/24 00:26:01;;;;;;;0.27;0.27;;;;;;;;;;5079214;28;20251;-80
2022/03/24 00:28:27;;;;;;;0.10;0.10;;;;;;;;;;5086704;28;20202;-80
2022/03/24 00:30:54;;;;;;;1.07;1.07;;;;;;;;;;5077319;28;20270;-80
2022/03/24 00:33:27;;;;;;;0.10;0.10;;;;;;;;;;5089509;28;20205;-80
2022/03/24 00:36:00;;;;;;;0.10;0.10;;;;;;;;;;5066340;28;20246;-78
2022/03/24 00:38:27;;;;;;;0.10;0.10;;;;;;;;;;5041331;28;20232;-79
2022/03/24 00:41:49;;;;;;;;;;;;;;;;;;;;;
2022/03/24 01:34:21;;;;;;;;;;;;;;;;;;;;;
2022/03/24 01:37:23;;;;;;;;;;;;;;;;;;;;;
2022/03/24 01:40:14;;;;;;;0.10;0.10;;;;;;;;;;5113787;28;20367;-80
2022/03/24 01:42:48;;;;;;;0.10;0.10;;;;;;;;;;5037989;28;20224;-79
2022/03/24 01:48:37;;;;;;;0.17;0.17;;;;;;;;;;5050948;28;20212;-79
2022/03/24 01:51:40;;;;;;;0.20;0.20;;;;;;;;;;5032426;28;20369;-78
2022/03/24 01:54:32;;;;;;;0.40;0.40;;;;;;;;;;5050036;28;20513;-78
2022/03/24 02:00:10;;;;;;;0.10;0.10;;;;;;;;;;5048218;28;20492;-80
2022/03/24 02:17:30;;;;;;;0.20;0.20;;;;;;;;;;4963489;28;20359;-78
2022/03/24 02:20:10;;;;;;;0.10;0.10;;;;;;;;;;4972378;29;20239;-80
2022/03/24 02:23:14;;;;;;;;;;;;;;;;;;;;;
2022/03/24 02:29:23;;;;;;;;;;;;;;;;;;;;;
2022/03/24 02:31:52;;;;;;;5.40;5.20;;;;;;;;;;5015366;28;20245;-80
2022/03/24 03:27:58;;;;;;;0.83;0.80;;;;;;;;;;5026295;28;20315;-79
2022/03/24 03:31:03;;;;;;;0.10;0.10;;;;;;;;;;5055410;28;20207;-79
2022/03/24 03:36:36;;;;;;;0.10;0.10;;;;;;;;;;4980599;28;20335;-79
2022/03/24 03:42:27;;;;;;;0.30;0.30;;;;;;;;;;4947882;28;20291;-80
2022/03/24 03:45:20;;;;;;;0.10;0.10;;;;;;;;;;5089482;28;20202;-80
2022/03/24 03:48:07;;;;;;;0.10;0.10;;;;;;;;;;4957052;29;20211;-79
2022/03/24 03:50:53;;;;;;;0.10;0.10;;;;;;;;;;4928755;29;20211;-79
2022/03/24 03:53:53;;;;;;;0.10;0.10;;;;;;;;;;4952818;29;20218;-79
2022/03/24 03:56:29;;;;;;;0.10;0.10;;;;;;;;;;4908487;29;20256;-79
2022/03/24 03:58:55;;;;;;;0.10;0.10;;;;;;;;;;4892627;29;20205;-79
2022/03/24 04:01:31;;;;;;;0.10;0.10;;;;;;;;;;4881431;29;20295;-79
2022/03/24 04:03:58;;;;;;;0.10;0.10;;;;;;;;;;4891993;29;20252;-79
2022/03/24 04:06:26;;;;;;;0.20;0.20;;;;;;;;;;4881375;29;20313;-79
2022/03/24 04:08:53;;;;;;;0.20;0.20;;;;;;;;;;4890074;29;20213;-79
2022/03/24 04:11:19;;;;;;;0.20;0.20;;;;;;;;;;4881513;29;20245;-77
2022/03/24 04:14:00;;;;;;;0.17;0.17;;;;;;;;;;4889333;29;20225;-79
2022/03/24 04:16:30;;;;;;;0.10;0.10;;;;;;;;;;4884596;29;20265;-79
2022/03/24 04:19:10;;;;;;;0.20;0.20;;;;;;;;;;4947516;28;20213;-80
2022/03/24 04:21:41;;;;;;;0.10;0.10;;;;;;;;;;5008762;28;20250;-79
2022/03/24 04:24:16;;;;;;;0.20;0.20;;;;;;;;;;5080330;28;20207;-79
2022/03/24 04:26:45;;;;;;;0.10;0.10;;;;;;;;;;5072814;28;20250;-80
2022/03/24 04:29:20;;;;;;;0.20;0.20;;;;;;;;;;5083704;28;20199;-79
2022/03/24 04:31:50;;;;;;;0.13;0.13;;;;;;;;;;5031192;28;20240;-80
2022/03/24 04:34:42;;;;;;;;;;;;;;;;;;;;;
2022/03/24 04:41:00;;;;;;;;;;;;;;;;;;;;;
2022/03/24 05:35:35;;;;;;;;;;;;;;;;;;;;;
2022/03/24 05:38:40;;;;;;;0.10;0.10;;;;;;;;;;5085479;28;20321;-78
2022/03/24 05:44:38;;;;;;;0.20;0.20;;;;;;;;;;5031004;28;20232;-79
2022/03/24 06:12:26;;;;;;;0.10;0.10;;;;;;;;;;5000468;28;20292;-78
2022/03/24 06:27:34;;;;;;;0.10;0.10;;;;;;;;;;5063846;28;20277;-78
2022/03/24 06:30:05;;;;;;;0.20;0.20;;;;;;;;;;5092272;28;20204;-77
2022/03/24 06:32:32;;;;;;;0.10;0.10;;;;;;;;;;5063876;28;20303;-79
2022/03/24 06:35:02;;;;;;;0.10;0.10;;;;;;;;;;5092170;28;20223;-79
2022/03/24 06:37:39;;;;;;;;;;;;;;;;;;;;;
2022/03/24 07:02:28;;;;;;;0.20;0.20;;;;;;;;;;4972904;29;20257;-81
2022/03/24 07:10:52;;;;;;;1.20;1.13;;;;;;;;;;4966131;28;20191;-77
2022/03/24 07:13:19;;;;;;;0.10;0.10;;;;;;;;;;5014935;28;20209;-80
2022/03/24 07:15:45;;;;;;;0.10;0.10;;;;;;;;;;5011571;28;20304;-79
2022/03/24 07:18:15;;;;;;;0.10;0.10;;;;;;;;;;5022377;28;20210;-77
2022/03/24 07:20:50;;;;;;;0.10;0.10;;;;;;;;;;5007659;28;20315;-80
2022/03/24 07:26:10;;;;;;;2.83;2.63;;;;;;;;;;5010790;28;20254;-77
2022/03/24 07:29:14;;;;;;;0.13;0.13;;;;;;;;;;5048769;28;20209;-78
2022/03/24 07:31:51;;;;;;;0.17;0.17;;;;;;;;;;5032004;28;20321;-77
2022/03/24 07:34:24;;;;;;;0.10;0.10;;;;;;;;;;5021211;28;20228;-78
2022/03/24 07:36:56;;;;;;;0.10;0.10;;;;;;;;;;5011127;28;20254;-78
2022/03/24 07:39:22;;;;;;;0.10;0.10;;;;;;;;;;5021201;28;20216;-77
2022/03/24 07:41:52;;;;;;;0.10;0.10;;;;;;;;;;5011211;28;20241;-78
2022/03/24 07:44:18;;;;;;;0.50;0.50;;;;;;;;;;5020926;28;20274;-77
2022/03/24 07:46:44;;;;;;;0.33;0.33;;;;;;;;;;5011231;28;20297;-67
2022/03/24 07:49:11;;;;;;;0.10;0.10;;;;;;;;;;5021366;28;20263;-67
2022/03/24 07:51:39;;;;;;;0.10;0.10;;;;;;;;;;4989951;28;20307;-67
2022/03/24 07:54:07;;;;;;;0.57;0.57;;;;;;;;;;4998301;28;20244;-68
2022/03/24 07:56:35;;;;;;;0.10;0.10;;;;;;;;;;5000052;28;20248;-67
2022/03/24 07:59:01;;;;;;;0.10;0.10;;;;;;;;;;5058994;28;20251;-68
2022/03/24 08:01:28;;;;;;;0.10;0.10;;;;;;;;;;5040667;28;20255;-65
2022/03/24 08:03:55;;;;;;;0.10;0.10;;;;;;;;;;5057962;28;20282;-66
2022/03/24 08:06:22;;;;;;;0.10;0.10;;;;;;;;;;5041657;28;20291;-67
2022/03/24 08:08:50;;;;;;;0.10;0.10;;;;;;;;;;5056926;28;20210;-67
2022/03/24 08:11:16;;;;;;;0.10;0.10;;;;;;;;;;5042207;28;20243;-68
2022/03/24 08:13:42;;;;;;;0.10;0.10;;;;;;;;;;5055833;28;20251;-66
2022/03/24 08:16:09;;;;;;;0.10;0.10;;;;;;;;;;5051315;28;20297;-66
2022/03/24 08:18:35;;;;;;;0.10;0.10;;;;;;;;;;5062135;28;20281;-66
2022/03/24 08:21:01;;;;;;;11.30;10.53;;;;;;;;;;5044220;28;20248;-66
2022/03/24 08:23:27;;;;;;;0.27;0.27;;;;;;;;;;5053563;28;20277;-67
2022/03/24 08:25:55;;;;;;;0.10;0.10;;;;;;;;;;5045656;28;20293;-66
2022/03/24 08:28:22;;;;;;;0.80;0.80;;;;;;;;;;5051829;28;20215;-66
2022/03/24 08:30:48;;;;;;;0.10;0.10;;;;;;;;;;5046419;28;20287;-66
2022/03/24 08:33:15;;;;;;;0.10;0.10;;;;;;;;;;5050931;28;20266;-67
2022/03/24 08:35:41;;;;;;;1.23;1.23;;;;;;;;;;5047504;28;20268;-65
2022/03/24 08:38:08;;;;;;;0.10;0.10;;;;;;;;;;5056022;28;20296;-66
2022/03/24 08:40:34;;;;;;;0.10;0.10;;;;;;;;;;5049787;28;20441;-66
2022/03/24 08:43:03;;;;;;;0.03;0.03;;;;;;;;;;5047804;28;20302;-66
2022/03/24 08:45:30;;;;;;;0.03;0.03;;;;;;;;;;5050603;28;20209;-68
2022/03/24 08:47:56;;;;;;;0.00;0.00;;;;;;;;;;5047518;28;20275;-67
2022/03/24 08:50:23;;;;;;;0.00;0.00;;;;;;;;;;5052321;28;20209;-65
2022/03/24 08:52:50;;;;;;;1.00;1.00;;;;;;;;;;5061603;28;20404;-66
2022/03/24 08:55:20;;;;;;;0.10;0.10;;;;;;;;;;5052534;28;20212;-66
2022/03/24 08:57:46;;;;;;;1.85;1.67;;;;;;;;;;5061480;28;20250;-66
2022/03/24 09:00:16;;;;;;;8.48;2.42;;;;;;;;;;5062978;28;20307;-66
2022/03/24 09:02:44;;;;;;;0.50;0.50;;;;;;;;;;5034868;28;20228;-66
2022/03/24 09:05:10;;;;;;;0.00;0.00;;;;;;;;;;5052378;28;20214;-68
2022/03/24 09:07:37;;;;;;;0.08;0.08;;;;;;;;;;5061859;28;20362;-66
2022/03/24 09:10:06;;;;;;;0.00;0.00;;;;;;;;;;5062687;28;20211;-67
2022/03/24 09:12:33;;;;;;;0.00;0.00;;;;;;;;;;5034428;28;20209;-66
2022/03/24 09:14:59;;;;;;;0.00;0.00;;;;;;;;;;5062849;28;20213;-67
2022/03/24 09:17:28;;;;;;;0.55;0.55;;;;;;;;;;5051368;28;20441;-65
2022/03/24 09:19:55;;;;;;;1.90;1.80;;;;;;;;;;5062630;28;20219;-67
2022/03/24 09:22:22;;;;;;;1.27;1.27;;;;;;;;;;5050854;28;20280;-67
2022/03/24 09:24:48;;;;;;;0.43;0.43;;;;;;;;;;5062733;28;20220;-68
2022/03/24 09:27:15;;;;;;;0.57;0.57;;;;;;;;;;5051128;28;20299;-66
2022/03/24 09:29:41;;;;;;;1.35;1.30;;;;;;;;;;5062347;28;20212;-67
2022/03/24 09:32:12;;;;;;;0.10;0.10;;;;;;;;;;5050938;28;20528;-67
2022/03/24 09:34:39;;;;;;;0.70;0.70;;;;;;;;;;5061910;28;20235;-67
2022/03/24 09:37:06;;;;;;;1.75;1.75;;;;;;;;;;5051538;28;20246;-66
2022/03/24 09:39:32;;;;;;;1.60;1.52;;;;;;;;;;5066020;28;20276;-67
2022/03/24 09:41:58;;;;;;;0.17;0.17;;;;;;;;;;5054365;28;20290;-66
2022/03/24 09:44:25;;;;;;;0.00;0.00;;;;;;;;;;5065688;28;20209;-66
2022/03/24 09:46:51;;;;;;;0.00;0.00;;;;;;;;;;5054458;28;20255;-67
2022/03/24 09:49:18;;;;;;;0.00;0.00;;;;;;;;;;5065432;28;20424;-67
2022/03/24 09:51:45;;;;;;;0.00;0.00;;;;;;;;;;5054144;28;20246;-68
2022/03/24 09:54:12;;;;;;;1.45;1.40;;;;;;;;;;5082008;28;20207;-67
2022/03/24 09:56:39;;;;;;;0.90;0.90;;;;;;;;;;5074369;28;20242;-66
2022/03/24 09:59:05;;;;;;;0.00;0.00;;;;;;;;;;5085280;28;20237;-67
2022/03/24 10:01:31;;;;;;;0.00;0.00;;;;;;;;;;5074428;28;20630;-66
2022/03/24 10:04:08;;;;;;;0.10;0.10;;;;;;;;;;5085073;28;20301;-66
2022/03/24 10:06:35;;;;;;;0.00;0.00;;;;;;;;;;5074316;28;20247;-65
2022/03/24 10:09:03;;;;;;;0.10;0.10;;;;;;;;;;5085050;28;20207;-66
2022/03/24 10:11:29;;;;;;;0.68;0.68;;;;;;;;;;5074118;28;20338;-66
2022/03/24 10:13:58;;;;;;;0.25;0.25;;;;;;;;;;5084928;28;20203;-66
2022/03/24 10:16:41;;;;;;;0.10;0.10;;;;;;;;;;5074120;28;20243;-66
2022/03/24 10:19:08;;;;;;;0.00;0.00;;;;;;;;;;5085088;28;20207;-65
2022/03/24 10:21:36;;;;;;;0.00;0.00;;;;;;;;;;5074152;28;20303;-66
2022/03/24 10:24:09;;;;;;;0.00;0.00;;;;;;;;;;5084726;28;20403;-65
2022/03/24 10:26:42;;;;;;;0.00;0.00;;;;;;;;;;5074013;28;20249;-68
2022/03/24 10:29:09;;;;;;;0.10;0.10;;;;;;;;;;5084623;28;20257;-68
2022/03/24 10:31:36;;;;;;;0.00;0.00;;;;;;;;;;5073536;28;20243;-66
2022/03/24 10:34:03;;;;;;;2.97;2.88;;;;;;;;;;5084426;28;20210;-69
2022/03/24 10:36:29;;;;;;;0.00;0.00;;;;;;;;;;5073850;28;20284;-67
2022/03/24 10:38:58;;;;;;;0.00;0.00;;;;;;;;;;5084556;28;20211;-67
2022/03/24 10:41:27;;;;;;;0.00;0.00;;;;;;;;;;5073521;28;20247;-67
2022/03/24 10:43:54;;;;;;;0.00;0.00;;;;;;;;;;5084343;28;20300;-68
2022/03/24 10:46:22;;;;;;;0.00;0.00;;;;;;;;;;5073448;28;20243;-67
2022/03/24 10:48:49;;;;;;;0.00;0.00;;;;;;;;;;5083054;28;20278;-67
2022/03/24 10:51:22;;;;;;;0.00;0.00;;;;;;;;;;5073474;28;20243;-67
2022/03/24 10:53:48;;;;;;;0.00;0.00;;;;;;;;;;5083754;28;20282;-67
2022/03/24 10:56:17;;;;;;;0.00;0.00;;;;;;;;;;5073508;28;20305;-66
2022/03/24 10:58:46;;;;;;;0.00;0.00;;;;;;;;;;5083858;28;20215;-67
2022/03/24 11:01:14;;;;;;;0.00;0.00;;;;;;;;;;5073145;28;20250;-66
2022/03/24 11:03:41;;;;;;;0.00;0.00;;;;;;;;;;5083698;28;20235;-67
2022/03/24 11:06:08;;;;;;;0.00;0.00;;;;;;;;;;5073342;28;20243;-65
2022/03/24 11:08:34;;;;;;;0.00;0.00;;;;;;;;;;5083718;28;20393;-68
2022/03/24 11:11:01;;;;;;;0.10;0.10;;;;;;;;;;5072990;28;20238;-67
2022/03/24 11:13:30;;;;;;;0.00;0.00;;;;;;;;;;5083626;28;20429;-66
2022/03/24 11:15:58;;;;;;;0.00;0.00;;;;;;;;;;5072848;28;20239;-68
2022/03/24 11:18:25;;;;;;;0.00;0.00;;;;;;;;;;5083231;28;20259;-66
2022/03/24 11:20:54;;;;;;;0.00;0.00;;;;;;;;;;5073295;28;20239;-67
2022/03/24 11:23:34;;;;;;;0.08;0.08;;;;;;;;;;5083319;28;20235;-66
2022/03/24 11:26:02;;;;;;;0.03;0.03;;;;;;;;;;5073130;28;20242;-67
2022/03/24 11:28:28;;;;;;;0.00;0.00;;;;;;;;;;5083056;28;20208;-66
2022/03/24 11:30:54;;;;;;;0.00;0.00;;;;;;;;;;5073190;28;20247;-66
2022/03/24 11:33:22;;;;;;;0.00;0.00;;;;;;;;;;5082847;28;20491;-66
2022/03/24 11:35:49;;;;;;;0.00;0.00;;;;;;;;;;5073102;28;20510;-68
2022/03/24 11:38:15;;;;;;;0.10;0.10;;;;;;;;;;5082693;28;20218;-66
2022/03/24 11:40:42;;;;;;;2.67;2.50;;;;;;;;;;5073044;28;20301;-66
2022/03/24 11:43:10;;;;;;;0.00;0.00;;;;;;;;;;5082623;28;20562;-67
2022/03/24 11:45:40;;;;;;;0.00;0.00;;;;;;;;;;5072996;28;20243;-67
2022/03/24 11:48:07;;;;;;;0.00;0.00;;;;;;;;;;5082879;28;20251;-66
2022/03/24 11:50:40;;;;;;;0.00;0.00;;;;;;;;;;5073000;28;20304;-67
2022/03/24 11:53:11;;;;;;;2.97;2.78;;;;;;;;;;5082424;28;20215;-67
2022/03/24 11:55:38;;;;;;;0.00;0.00;;;;;;;;;;5072330;28;20243;-67
2022/03/24 11:58:05;;;;;;;0.28;0.28;;;;;;;;;;5082324;28;20234;-67
2022/03/24 12:00:37;;;;;;;3.45;2.75;;;;;;;;;;5072541;28;20286;-67
2022/03/24 12:03:23;;;;;;;0.10;0.10;;;;;;;;;;5082104;28;20219;-67
2022/03/24 12:05:55;;;;;;;0.00;0.00;;;;;;;;;;5072688;28;20350;-68
2022/03/24 12:08:26;;;;;;;0.00;0.00;;;;;;;;;;5082707;28;20365;-67
2022/03/24 12:10:53;;;;;;;0.00;0.00;;;;;;;;;;5072578;28;20243;-65
2022/03/24 12:13:21;;;;;;;0.00;0.00;;;;;;;;;;5082273;28;20203;-65
2022/03/24 12:16:10;;;;;;;0.00;0.00;;;;;;;;;;5072362;28;20289;-66
2022/03/24 12:18:40;;;;;;;0.00;0.00;;;;;;;;;;5082636;28;20195;-65
2022/03/24 12:21:07;;;;;;;0.00;0.00;;;;;;;;;;5072049;28;20330;-65
2022/03/24 12:23:48;;;;;;;1.35;1.35;;;;;;;;;;5082491;28;20423;-66
2022/03/24 12:26:17;;;;;;;0.00;0.00;;;;;;;;;;5071894;28;20243;-65
2022/03/24 12:28:43;;;;;;;0.00;0.00;;;;;;;;;;5082618;28;20210;-64
2022/03/24 12:31:10;;;;;;;0.00;0.00;;;;;;;;;;5071819;28;20306;-74
2022/03/24 12:33:47;;;;;;;1.17;1.17;;;;;;;;;;5082469;28;20463;-74
2022/03/24 12:36:15;;;;;;;0.00;0.00;;;;;;;;;;5071903;28;20239;-73
2022/03/24 12:38:46;;;;;;;0.38;0.38;;;;;;;;;;5082224;28;20310;-72
2022/03/24 12:41:21;;;;;;;0.05;0.05;;;;;;;;;;5071747;28;20276;-72
2022/03/24 12:43:49;;;;;;;0.00;0.00;;;;;;;;;;5081947;28;20227;-73
2022/03/24 12:46:19;;;;;;;0.00;0.00;;;;;;;;;;5071831;28;20517;-72
2022/03/24 12:48:46;;;;;;;0.00;0.00;;;;;;;;;;5082046;28;20403;-72
2022/03/24 12:51:21;;;;;;;0.10;0.10;;;;;;;;;;5071477;28;20438;-72
2022/03/24 12:53:51;;;;;;;0.00;0.00;;;;;;;;;;5082196;28;20220;-71
2022/03/24 12:56:22;;;;;;;3.20;3.10;;;;;;;;;;5071878;28;20288;-72
2022/03/24 12:58:51;;;;;;;0.00;0.00;;;;;;;;;;5081872;28;20237;-71
2022/03/24 13:01:17;;;;;;;0.00;0.00;;;;;;;;;;5071355;28;20468;-65
2022/03/24 13:03:44;;;;;;;0.10;0.10;;;;;;;;;;5082089;28;20255;-64
2022/03/24 13:06:10;;;;;;;0.00;0.00;;;;;;;;;;5071575;28;20239;-65
2022/03/24 13:08:38;;;;;;;0.10;0.10;;;;;;;;;;5081804;28;20269;-65
2022/03/24 13:11:04;;;;;;;0.00;0.00;;;;;;;;;;5071847;28;20481;-65
2022/03/24 13:13:31;;;;;;;1.60;1.55;;;;;;;;;;5085454;28;20209;-66
2022/03/24 13:15:57;;;;;;;0.00;0.00;;;;;;;;;;5075942;28;20288;-65
2022/03/24 13:18:24;;;;;;;1.42;1.38;;;;;;;;;;5085537;28;20223;-64
2022/03/24 13:20:53;;;;;;;0.00;0.00;;;;;;;;;;5075889;28;20246;-65
2022/03/24 13:23:20;;;;;;;0.00;0.00;;;;;;;;;;5085520;28;20218;-64
2022/03/24 13:25:49;;;;;;;0.10;0.10;;;;;;;;;;5075320;28;20248;-65
2022/03/24 13:28:16;;;;;;;0.10;0.10;;;;;;;;;;5085394;28;20209;-65
2022/03/24 13:30:43;;;;;;;0.00;0.00;;;;;;;;;;5075559;28;20248;-66
2022/03/24 13:33:11;;;;;;;0.00;0.00;;;;;;;;;;5085338;28;20400;-65
2022/03/24 13:35:38;;;;;;;0.00;0.00;;;;;;;;;;5075521;28;20447;-66
2022/03/24 13:38:06;;;;;;;0.20;0.20;;;;;;;;;;5085180;28;20193;-65
2022/03/24 13:40:34;;;;;;;0.05;0.05;;;;;;;;;;5075589;28;20311;-65
2022/03/24 13:43:02;;;;;;;0.00;0.00;;;;;;;;;;5084952;28;20285;-65
2022/03/24 13:45:28;;;;;;;0.22;0.22;;;;;;;;;;5075507;28;20268;-65
2022/03/24 13:47:57;;;;;;;1.20;1.20;;;;;;;;;;5085090;28;20197;-66
2022/03/24 13:50:24;;;;;;;1.10;1.10;;;;;;;;;;5075728;28;20288;-65
2022/03/24 13:52:51;;;;;;;0.10;0.10;;;;;;;;;;5084898;28;20216;-64
2022/03/24 13:55:19;;;;;;;0.10;0.10;;;;;;;;;;5075347;28;20443;-65
2022/03/24 13:57:53;;;;;;;0.22;0.22;;;;;;;;;;5085031;28;20199;-65
2022/03/24 14:00:31;;;;;;;0.10;0.10;;;;;;;;;;5075283;28;20276;-64
2022/03/24 14:03:07;;;;;;;0.00;0.00;;;;;;;;;;5084444;28;20210;-63
2022/03/24 14:05:53;;;;;;;0.00;0.00;;;;;;;;;;5075166;28;20490;-64
2022/03/24 14:08:29;;;;;;;0.00;0.00;;;;;;;;;;5084913;28;20402;-63
2022/03/24 14:11:02;;;;;;;0.00;0.00;;;;;;;;;;5074856;28;20239;-63
2022/03/24 14:13:29;;;;;;;0.00;0.00;;;;;;;;;;5085211;28;20198;-64
2022/03/24 14:16:08;;;;;;;0.00;0.00;;;;;;;;;;5074819;28;20252;-63
2022/03/24 14:18:34;;;;;;;0.10;0.10;;;;;;;;;;5084828;28;20276;-64
2022/03/24 14:21:01;;;;;;;0.00;0.00;;;;;;;;;;5074460;28;20461;-65
2022/03/24 14:23:28;;;;;;;0.10;0.10;;;;;;;;;;5084753;28;20213;-64
2022/03/24 14:25:54;;;;;;;0.10;0.10;;;;;;;;;;5074817;28;20302;-64
2022/03/24 14:28:39;;;;;;;0.00;0.00;;;;;;;;;;5084430;28;20211;-65
2022/03/24 14:31:21;;;;;;;0.00;0.00;;;;;;;;;;5074367;28;20308;-63
2022/03/24 14:33:49;;;;;;;0.00;0.00;;;;;;;;;;5084082;28;20206;-65
2022/03/24 14:36:16;;;;;;;0.00;0.00;;;;;;;;;;5074108;28;20246;-64
2022/03/24 14:38:57;;;;;;;0.00;0.00;;;;;;;;;;5084619;28;20209;-65
2022/03/24 14:41:23;;;;;;;0.10;0.10;;;;;;;;;;5073061;28;20308;-66
2022/03/24 14:43:51;;;;;;;0.00;0.00;;;;;;;;;;5084280;28;20230;-64
2022/03/24 14:46:17;;;;;;;0.00;0.00;;;;;;;;;;5073993;28;20247;-65
2022/03/24 14:48:43;;;;;;;0.95;0.95;;;;;;;;;;5084356;28;20209;-65
2022/03/24 14:51:11;;;;;;;0.00;0.00;;;;;;;;;;5073914;28;20248;-64
2022/03/24 14:53:37;;;;;;;0.00;0.00;;;;;;;;;;5083854;28;20216;-64
2022/03/24 14:56:04;;;;;;;0.00;0.00;;;;;;;;;;5073900;28;20262;-64
2022/03/24 14:58:31;;;;;;;28.73;18.52;;;;;;;;;;5083791;28;20323;-65
2022/03/24 15:00:58;;;;;;;0.00;0.00;;;;;;;;;;5073774;28;20373;-64
2022/03/24 15:03:24;;;;;;;0.15;0.15;;;;;;;;;;5083957;28;20217;-65
2022/03/24 15:05:51;;;;;;;0.10;0.10;;;;;;;;;;5073912;28;20389;-64
2022/03/24 15:08:19;;;;;;;0.00;0.00;;;;;;;;;;5083911;28;20242;-65
2022/03/24 15:10:46;;;;;;;0.00;0.00;;;;;;;;;;5074009;28;20312;-65
2022/03/24 15:13:13;;;;;;;0.00;0.00;;;;;;;;;;5083498;28;20241;-64
2022/03/24 15:18:23;;;;;;;0.08;0.08;;;;;;;;;;5083630;28;20299;-64
2022/03/24 15:20:49;;;;;;;0.00;0.00;;;;;;;;;;5073576;28;20494;-67
2022/03/24 15:23:16;;;;;;;0.00;0.00;;;;;;;;;;5083671;28;20392;-66
2022/03/24 15:25:44;;;;;;;0.00;0.00;;;;;;;;;;5073546;28;20328;-66
2022/03/24 15:28:10;;;;;;;0.00;0.00;;;;;;;;;;5083545;28;20380;-66
2022/03/24 15:30:36;;;;;;;0.00;0.00;;;;;;;;;;5073581;28;20246;-67
2022/03/24 15:33:03;;;;;;;0.10;0.10;;;;;;;;;;5083719;28;20418;-65
2022/03/24 15:35:30;;;;;;;0.00;0.00;;;;;;;;;;5072865;28;20248;-67
2022/03/24 15:37:56;;;;;;;0.00;0.00;;;;;;;;;;5083213;28;20563;-65
2022/03/24 15:40:22;;;;;;;0.22;0.22;;;;;;;;;;5073593;28;20242;-65
2022/03/24 15:42:50;;;;;;;0.10;0.10;;;;;;;;;;5082993;28;20211;-66
2022/03/24 15:45:17;;;;;;;0.00;0.00;;;;;;;;;;5073065;28;20424;-64
2022/03/24 15:47:44;;;;;;;0.00;0.00;;;;;;;;;;5082857;28;20212;-65
2022/03/24 15:50:12;;;;;;;0.85;0.85;;;;;;;;;;5073364;28;20210;-65
2022/03/24 15:52:39;;;;;;;0.30;0.30;;;;;;;;;;5082559;28;20222;-67
2022/03/24 15:55:06;;;;;;;0.00;0.00;;;;;;;;;;5076487;28;20417;-65
2022/03/24 15:57:33;;;;;;;0.08;0.08;;;;;;;;;;5082225;28;20242;-67
2022/03/24 16:00:00;;;;;;;0.00;0.00;;;;;;;;;;5074940;28;20209;-74
2022/03/24 16:02:27;;;;;;;0.00;0.00;;;;;;;;;;5071890;28;20343;-75
2022/03/24 16:04:53;;;;;;;0.10;0.10;;;;;;;;;;5083625;28;20221;-77
2022/03/24 16:07:20;;;;;;;0.03;0.03;;;;;;;;;;5072222;28;20491;-77
2022/03/24 16:09:46;;;;;;;0.08;0.08;;;;;;;;;;5083566;28;20455;-76
2022/03/24 16:12:14;;;;;;;8.23;7.53;;;;;;;;;;5071843;28;20502;-64
2022/03/24 16:14:43;;;;;;;0.00;0.00;;;;;;;;;;5083324;28;20211;-76
2022/03/24 16:17:11;;;;;;;0.00;0.00;;;;;;;;;;5071663;28;20287;-76
2022/03/24 16:19:37;;;;;;;0.03;0.03;;;;;;;;;;5083349;28;20258;-76
2022/03/24 16:22:04;;;;;;;0.00;0.00;;;;;;;;;;5071673;28;20595;-76
2022/03/24 16:24:31;;;;;;;0.00;0.00;;;;;;;;;;5083451;28;20290;-77
2022/03/24 16:26:57;;;;;;;0.00;0.00;;;;;;;;;;5071929;28;20251;-78
2022/03/24 16:29:23;;;;;;;0.03;0.03;;;;;;;;;;5083074;28;20263;-78
2022/03/24 16:31:50;;;;;;;0.20;0.20;;;;;;;;;;5071833;28;20244;-69
2022/03/24 16:34:17;;;;;;;0.10;0.10;;;;;;;;;;5082872;28;20250;-63
2022/03/24 16:36:44;;;;;;;0.20;0.20;;;;;;;;;;5071707;28;20254;-68
2022/03/24 16:39:10;;;;;;;5.07;4.85;;;;;;;;;;5083007;28;20209;-64
2022/03/24 16:41:36;;;;;;;0.00;0.00;;;;;;;;;;5071796;28;20247;-65
2022/03/24 16:44:03;;;;;;;1.35;1.05;;;;;;;;;;5082501;28;20254;-66
2022/03/24 16:46:29;;;;;;;0.00;0.00;;;;;;;;;;5071455;28;20634;-65
2022/03/24 16:48:55;;;;;;;11.35;10.65;;;;;;;;;;5086549;28;20447;-64
2022/03/24 16:51:23;;;;;;;0.03;0.03;;;;;;;;;;5075704;28;20243;-64
2022/03/24 16:53:50;;;;;;;0.10;0.10;;;;;;;;;;5086259;28;20217;-66
2022/03/24 16:56:16;;;;;;;1.38;1.38;;;;;;;;;;5075934;28;20264;-65
2022/03/24 16:58:42;;;;;;;0.08;0.08;;;;;;;;;;5086267;28;20210;-64
2022/03/24 17:01:09;;;;;;;0.03;0.03;;;;;;;;;;5076049;28;20239;-65
2022/03/24 17:03:35;;;;;;;0.10;0.10;;;;;;;;;;5086293;28;20278;-66
2022/03/24 17:06:01;;;;;;;0.08;0.08;;;;;;;;;;5075922;28;20282;-64
2022/03/24 17:08:29;;;;;;;0.20;0.20;;;;;;;;;;5086379;28;20207;-64
2022/03/24 17:10:55;;;;;;;0.10;0.10;;;;;;;;;;5076033;28;20270;-63
2022/03/24 17:13:22;;;;;;;0.10;0.10;;;;;;;;;;5086179;28;20213;-64
2022/03/24 17:15:48;;;;;;;0.00;0.00;;;;;;;;;;5075631;28;20245;-66
2022/03/24 17:18:14;;;;;;;0.00;0.00;;;;;;;;;;5086034;28;20207;-65
2022/03/24 17:20:41;;;;;;;0.10;0.10;;;;;;;;;;5075877;28;20239;-65
2022/03/24 17:23:07;;;;;;;0.00;0.00;;;;;;;;;;5085910;28;20198;-65
2022/03/24 17:25:35;;;;;;;0.07;0.07;;;;;;;;;;5076315;28;20289;-63
2022/03/24 17:28:01;;;;;;;19.73;13.80;;;;;;;;;;5085310;28;20216;-66
2022/03/24 17:30:28;;;;;;;0.10;0.10;;;;;;;;;;5075486;28;20297;-64
2022/03/24 17:32:54;;;;;;;0.07;0.07;;;;;;;;;;5085179;28;20236;-65
2022/03/24 17:35:22;;;;;;;0.07;0.07;;;;;;;;;;5075639;28;20231;-64
2022/03/24 17:37:50;;;;;;;2.40;2.30;;;;;;;;;;5085524;28;20196;-64
2022/03/24 17:40:18;;;;;;;0.13;0.13;;;;;;;;;;5075749;28;20241;-65
2022/03/24 17:42:46;;;;;;;0.10;0.10;;;;;;;;;;5084988;28;20196;-65
2022/03/24 17:45:12;;;;;;;0.10;0.10;;;;;;;;;;5075753;28;20236;-64
2022/03/24 17:47:39;;;;;;;0.10;0.10;;;;;;;;;;5084887;28;20198;-65
2022/03/24 17:50:07;;;;;;;0.10;0.10;;;;;;;;;;5078341;28;20312;-64
2022/03/24 17:52:33;;;;;;;0.00;0.00;;;;;;;;;;5084363;28;20233;-65
2022/03/24 17:54:59;;;;;;;0.10;0.10;;;;;;;;;;5077837;28;20493;-65
2022/03/24 17:57:26;;;;;;;0.10;0.10;;;;;;;;;;5074100;28;20271;-65
2022/03/24 17:59:54;;;;;;;4.93;4.73;;;;;;;;;;5085762;28;20213;-64
2022/03/24 18:02:20;;;;;;;0.10;0.10;;;;;;;;;;5074075;28;20254;-63
2022/03/24 18:04:47;;;;;;;0.10;0.10;;;;;;;;;;5085790;28;20281;-64
2022/03/24 18:07:13;;;;;;;0.10;0.10;;;;;;;;;;5074014;28;20235;-64
2022/03/24 18:09:40;;;;;;;0.10;0.10;;;;;;;;;;5085589;28;20215;-70
2022/03/24 18:12:06;;;;;;;0.10;0.10;;;;;;;;;;5073947;28;20261;-64
2022/03/24 18:14:33;;;;;;;1.80;1.80;;;;;;;;;;5085479;28;20209;-65
2022/03/24 18:17:00;;;;;;;0.00;0.00;;;;;;;;;;5074434;28;20247;-64
2022/03/24 18:19:27;;;;;;;0.10;0.10;;;;;;;;;;5085258;28;20232;-65
2022/03/24 18:21:53;;;;;;;0.10;0.10;;;;;;;;;;5073908;28;20366;-65
2022/03/24 18:24:23;;;;;;;0.10;0.10;;;;;;;;;;5085099;28;20209;-65
2022/03/24 18:26:49;;;;;;;0.10;0.10;;;;;;;;;;5073766;28;20247;-64
2022/03/24 18:29:15;;;;;;;0.10;0.10;;;;;;;;;;5085040;28;20218;-65
2022/03/24 18:31:42;;;;;;;0.10;0.10;;;;;;;;;;5073764;28;20254;-65
2022/03/24 18:34:10;;;;;;;0.10;0.10;;;;;;;;;;5084932;28;20208;-64
2022/03/24 18:39:55;;;;;;;0.00;0.00;;;;;;;;;;5085411;28;20195;-80
2022/03/24 18:42:40;;;;;;;0.10;0.10;;;;;;;;;;5072401;28;20277;-83
2022/03/24 18:45:19;;;;;;;0.10;0.10;;;;;;;;;;5082078;28;20451;-81
2022/03/24 18:48:05;;;;;;;0.10;0.10;;;;;;;;;;5085698;28;20282;-82
2022/03/24 18:50:58;;;;;;;;;;;;;;;;;;;;;
2022/03/24 18:53:43;;;;;;;0.10;0.10;;;;;;;;;;5084670;28;20411;-81
2022/03/24 18:56:16;;;;;;;0.00;0.00;;;;;;;;;;5074299;28;20243;-76
2022/03/24 18:58:45;;;;;;;0.10;0.10;;;;;;;;;;5084110;28;20511;-74
2022/03/24 19:01:13;;;;;;;0.10;0.10;;;;;;;;;;5073217;28;20247;-76
2022/03/24 19:03:40;;;;;;;0.30;0.30;;;;;;;;;;5083518;28;20237;-76
2022/03/24 19:06:13;;;;;;;0.10;0.10;;;;;;;;;;5066068;28;20500;-75
2022/03/24 19:08:40;;;;;;;0.00;0.00;;;;;;;;;;5061596;28;20207;-76
2022/03/24 19:11:07;;;;;;;0.10;0.10;;;;;;;;;;5050133;28;20543;-76
2022/03/24 19:13:34;;;;;;;0.10;0.10;;;;;;;;;;5061777;28;20344;-76
2022/03/24 19:16:08;;;;;;;0.10;0.10;;;;;;;;;;5038426;28;20405;-79
2022/03/24 19:18:35;;;;;;;0.10;0.10;;;;;;;;;;5021841;28;21236;-78
2022/03/24 19:21:09;;;;;;;0.10;0.10;;;;;;;;;;4996389;28;20253;-79
2022/03/24 19:23:51;;;;;;;0.10;0.10;;;;;;;;;;4982657;28;20210;-79
2022/03/24 19:26:27;;;;;;;0.10;0.10;;;;;;;;;;4963001;28;20284;-77
2022/03/24 19:29:02;;;;;;;0.10;0.10;;;;;;;;;;4962954;29;20422;-76
2022/03/24 19:31:29;;;;;;;0.10;0.10;;;;;;;;;;4952962;29;20261;-76
2022/03/24 19:34:03;;;;;;;1.47;1.47;;;;;;;;;;4962632;29;20446;-76
2022/03/24 19:36:30;;;;;;;0.10;0.10;;;;;;;;;;4928984;29;20254;-77
2022/03/24 19:41:48;;;;;;;0.10;0.10;;;;;;;;;;4908192;29;20255;-76